createdAt,value
2019-02-26T00:00:27.508Z,32.77
2019-02-26T00:03:02.408Z,36.03
2019-02-26T00:05:33.176Z,36.67
2019-02-26T00:08:04.306Z,38.03
2019-02-26T00:10:37.115Z,39.23
2019-02-26T00:13:09.379Z,36.33
2019-02-26T00:15:43.035Z,34.20
2019-02-26T00:18:13.957Z,43.47
2019-02-26T00:20:46.184Z,36.70
2019-02-26T00:23:19.250Z,40.17
2019-02-26T00:25:50.246Z,37.17
2019-02-26T00:28:22.065Z,37.37
2019-02-26T00:30:55.015Z,36.77
2019-02-26T00:33:27.263Z,40.43
2019-02-26T00:35:59.065Z,39.87
2019-02-26T00:38:30.183Z,38.43
2019-02-26T00:41:02.196Z,34.53
2019-02-26T00:43:34.643Z,37.80
2019-02-26T00:46:08.569Z,36.40
2019-02-26T00:48:40.692Z,36.43
2019-02-26T00:51:12.536Z,40.00
2019-02-26T00:53:43.774Z,42.13
2019-02-26T00:56:15.003Z,39.07
2019-02-26T00:58:48.361Z,37.77
2019-02-26T01:01:21.738Z,39.83
2019-02-26T01:03:53.860Z,44.27
2019-02-26T01:06:26.760Z,38.93
2019-02-26T01:08:59.013Z,34.60
2019-02-26T01:11:30.595Z,38.67
2019-02-26T01:14:01.845Z,36.47
2019-02-26T01:16:33.035Z,36.87
2019-02-26T01:19:04.287Z,39.03
2019-02-26T01:21:36.242Z,39.47
2019-02-26T01:24:08.667Z,41.87
2019-02-26T01:26:42.530Z,36.10
2019-02-26T01:29:16.047Z,35.57
2019-02-26T01:31:45.664Z,37.20
2019-02-26T01:34:18.151Z,39.17
2019-02-26T01:36:49.677Z,39.17
2019-02-26T01:39:23.380Z,39.20
2019-02-26T01:41:56.245Z,40.20
2019-02-26T01:44:30.139Z,34.57
2019-02-26T01:47:02.521Z,36.80
2019-02-26T01:49:33.240Z,35.47
2019-02-26T01:52:06.137Z,43.13
2019-02-26T01:54:37.856Z,37.27
2019-02-26T01:57:10.270Z,42.60
2019-02-26T01:59:41.499Z,39.50
2019-02-26T02:02:17.390Z,40.27
2019-02-26T02:04:46.346Z,37.63
2019-02-26T02:07:19.018Z,38.20
2019-02-26T02:09:51.290Z,35.93
2019-02-26T02:12:25.459Z,38.70
2019-02-26T02:14:56.211Z,35.73
2019-02-26T02:17:28.822Z,36.90
2019-02-26T02:20:03.038Z,38.70
2019-02-26T02:22:35.178Z,42.27
2019-02-26T02:25:07.666Z,44.47
2019-02-26T02:27:38.833Z,37.37
2019-02-26T02:30:17.917Z,38.93
2019-02-26T02:32:48.195Z,37.57
2019-02-26T02:35:19.255Z,44.67
2019-02-26T02:37:53.552Z,44.13
2019-02-26T02:40:24.571Z,41.43
2019-02-26T02:42:55.752Z,41.50
2019-02-26T02:45:27.016Z,45.23
2019-02-26T02:48:00.585Z,42.57
2019-02-26T02:50:42.870Z,42.43
2019-02-26T02:53:14.072Z,44.67
2019-02-26T02:55:46.957Z,42.63
2019-02-26T02:58:20.726Z,49.70
2019-02-26T03:00:52.239Z,47.70
2019-02-26T03:03:23.643Z,46.20
2019-02-26T03:05:54.978Z,41.20
2019-02-26T03:08:26.197Z,42.10
2019-02-26T03:10:57.409Z,45.10
2019-02-26T03:13:28.653Z,40.47
2019-02-26T03:16:01.636Z,44.30
2019-02-26T03:18:32.738Z,40.57
2019-02-26T03:21:04.807Z,46.77
2019-02-26T03:23:37.936Z,41.00
2019-02-26T03:26:12.579Z,44.00
2019-02-26T03:28:42.124Z,42.43
2019-02-26T03:31:14.837Z,41.07
2019-02-26T03:33:46.191Z,43.37
2019-02-26T03:36:19.256Z,46.70
2019-02-26T03:38:53.743Z,45.70
2019-02-26T03:41:26.152Z,45.73
2019-02-26T03:43:58.586Z,45.43
2019-02-26T03:46:30.100Z,43.57
2019-02-26T03:49:02.682Z,46.57
2019-02-26T03:51:39.053Z,50.93
2019-02-26T03:54:07.080Z,52.57
2019-02-26T03:56:38.384Z,50.63
2019-02-26T03:59:11.795Z,46.87
2019-02-26T04:01:42.385Z,45.63
2019-02-26T04:04:13.604Z,46.40
2019-02-26T04:06:46.973Z,43.27
2019-02-26T04:09:19.615Z,43.80
2019-02-26T04:11:52.929Z,45.80
2019-02-26T04:14:25.589Z,44.03
2019-02-26T04:16:58.665Z,52.67
2019-02-26T04:19:29.187Z,46.43
2019-02-26T04:22:34.619Z,47.17
2019-02-26T04:25:35.469Z,43.93
2019-02-26T04:28:30.708Z,43.43
2019-02-26T04:31:31.657Z,51.07
2019-02-26T04:34:59.156Z,45.40
2019-02-26T04:38:33.630Z,44.17
2019-02-26T04:41:24.816Z,43.03
2019-02-26T04:44:35.085Z,48.70
2019-02-26T04:47:15.290Z,47.03
2019-02-26T04:49:46.540Z,46.70
2019-02-26T04:52:17.815Z,46.63
2019-02-26T04:54:50.205Z,49.53
2019-02-26T04:57:21.407Z,49.00
2019-02-26T04:59:52.618Z,47.80
2019-02-26T05:02:24.124Z,49.53
2019-02-26T05:04:55.275Z,45.53
2019-02-26T05:07:26.499Z,46.70
2019-02-26T05:09:59.419Z,50.97
2019-02-26T05:12:33.414Z,53.27
2019-02-26T05:15:03.321Z,52.13
2019-02-26T05:17:34.505Z,50.73
2019-02-26T05:20:07.168Z,52.10
2019-02-26T05:22:38.620Z,48.30
2019-02-26T05:25:13.374Z,57.73
2019-02-26T05:27:46.032Z,50.07
2019-02-26T05:30:19.241Z,52.93
2019-02-26T05:32:51.090Z,51.30
2019-02-26T05:35:23.400Z,53.00
2019-02-26T05:37:56.174Z,53.63
2019-02-26T05:40:27.420Z,57.57
2019-02-26T05:42:59.297Z,46.17
2019-02-26T05:45:33.062Z,56.87
2019-02-26T05:48:04.316Z,53.60
2019-02-26T05:50:38.670Z,58.90
2019-02-26T05:53:10.450Z,68.30
2019-02-26T05:55:42.249Z,59.13
2019-02-26T05:58:16.392Z,59.03
2019-02-26T06:00:46.996Z,57.60
2019-02-26T06:03:18.829Z,59.90
2019-02-26T06:05:51.993Z,59.70
2019-02-26T06:08:29.112Z,64.30
2019-02-26T06:10:56.933Z,65.57
2019-02-26T06:13:29.171Z,62.27
2019-02-26T06:16:02.293Z,59.43
2019-02-26T06:18:33.840Z,60.83
2019-02-26T06:21:05.044Z,62.57
2019-02-26T06:23:36.722Z,57.93
2019-02-26T06:26:14.268Z,63.37
2019-02-26T06:28:43.559Z,63.93
2019-02-26T06:31:17.465Z,65.17
2019-02-26T06:33:50.509Z,67.47
2019-02-26T06:36:23.325Z,72.20
2019-02-26T06:38:56.434Z,65.33
2019-02-26T06:41:28.072Z,70.10
2019-02-26T06:43:59.268Z,66.17
2019-02-26T06:46:31.928Z,64.20
2019-02-26T06:49:03.232Z,62.90
2019-02-26T06:51:34.505Z,65.07
2019-02-26T06:54:05.820Z,70.60
2019-02-26T06:56:41.502Z,70.87
2019-02-26T06:59:12.258Z,65.27
2019-02-26T07:01:43.359Z,69.03
2019-02-26T07:04:14.458Z,68.40
2019-02-26T07:06:45.663Z,70.87
2019-02-26T07:09:18.227Z,68.30
2019-02-26T07:11:49.680Z,73.30
2019-02-26T07:14:22.443Z,71.97
2019-02-26T07:16:53.709Z,80.87
2019-02-26T07:19:26.197Z,75.70
2019-02-26T07:21:57.693Z,83.17
2019-02-26T07:24:28.866Z,70.47
2019-02-26T07:27:01.977Z,72.67
2019-02-26T07:29:35.199Z,65.30
2019-02-26T07:32:05.716Z,74.83
2019-02-26T07:34:37.449Z,71.57
2019-02-26T07:37:09.331Z,76.90
2019-02-26T07:39:42.049Z,75.67
2019-02-26T07:42:16.426Z,82.30
2019-02-26T07:44:47.234Z,76.20
2019-02-26T07:47:18.533Z,73.70
2019-02-26T07:49:49.738Z,78.33
2019-02-26T07:52:21.580Z,77.10
2019-02-26T07:54:53.950Z,76.83
2019-02-26T07:57:27.527Z,78.77
2019-02-26T07:59:58.020Z,84.73
2019-02-26T08:02:30.661Z,79.70
2019-02-26T08:05:03.138Z,83.60
2019-02-26T08:07:34.364Z,76.27
2019-02-26T08:10:08.118Z,75.90
2019-02-26T08:12:42.704Z,77.13
2019-02-26T08:15:16.070Z,74.07
2019-02-26T08:17:50.318Z,75.57
2019-02-26T08:20:20.123Z,76.83
2019-02-26T08:22:52.243Z,79.33
2019-02-26T08:25:24.164Z,80.33
2019-02-26T08:27:56.514Z,69.80
2019-02-26T08:30:28.367Z,74.10
2019-02-26T08:33:02.009Z,82.40
2019-02-26T08:35:32.435Z,74.63
2019-02-26T08:38:05.674Z,73.27
2019-02-26T08:40:37.658Z,76.43
2019-02-26T08:43:08.964Z,75.03
2019-02-26T08:45:40.177Z,73.17
2019-02-26T08:48:14.669Z,81.83
2019-02-26T08:50:46.206Z,77.93
2019-02-26T08:53:17.239Z,73.40
2019-02-26T08:55:48.397Z,75.57
2019-02-26T08:58:19.629Z,77.90
2019-02-26T09:00:50.815Z,70.90
2019-02-26T09:03:22.061Z,74.83
2019-02-26T09:05:53.919Z,74.43
2019-02-26T09:08:26.154Z,72.10
2019-02-26T09:10:57.409Z,69.80
2019-02-26T09:13:28.703Z,74.90
2019-02-26T09:16:01.071Z,77.13
2019-02-26T09:18:37.548Z,76.83
2019-02-26T09:21:07.091Z,70.50
2019-02-26T09:23:38.633Z,71.67
2019-02-26T09:26:09.908Z,74.27
2019-02-26T09:28:41.147Z,75.37
2019-02-26T09:31:14.068Z,73.57
2019-02-26T09:33:45.625Z,69.37
2019-02-26T09:36:20.497Z,74.53
2019-02-26T09:38:51.467Z,71.83
2019-02-26T09:41:22.736Z,66.83
2019-02-26T09:43:53.884Z,71.17
2019-02-26T09:46:25.143Z,69.73
2019-02-26T09:48:57.914Z,70.83
2019-02-26T09:51:31.159Z,71.67
2019-02-26T09:54:03.045Z,73.97
2019-02-26T09:56:34.242Z,68.70
2019-02-26T09:59:07.034Z,76.27
2019-02-26T10:01:40.189Z,68.03
2019-02-26T10:04:11.103Z,66.80
2019-02-26T10:06:42.998Z,74.00
2019-02-26T10:09:16.212Z,72.27
2019-02-26T10:11:49.311Z,69.03
2019-02-26T10:14:20.754Z,68.90
2019-02-26T10:16:54.232Z,69.87
2019-02-26T10:19:24.681Z,62.03
2019-02-26T10:21:57.392Z,68.73
2019-02-26T10:24:30.218Z,65.73
2019-02-26T10:27:05.395Z,73.67
2019-02-26T10:29:36.605Z,72.17
2019-02-26T10:32:11.208Z,66.20
2019-02-26T10:34:40.052Z,70.90
2019-02-26T10:37:11.364Z,62.63
2019-02-26T10:39:44.367Z,64.60
2019-02-26T10:42:18.063Z,63.83
2019-02-26T10:44:48.343Z,60.60
2019-02-26T10:47:19.577Z,67.10
2019-02-26T10:49:51.891Z,64.13
2019-02-26T10:52:24.609Z,68.70
2019-02-26T10:54:56.489Z,59.73
2019-02-26T10:57:28.874Z,67.00
2019-02-26T11:00:02.701Z,62.20
2019-02-26T11:02:34.992Z,59.53
2019-02-26T11:05:08.632Z,55.37
2019-02-26T11:07:40.177Z,57.10
2019-02-26T11:10:12.453Z,54.70
2019-02-26T11:12:45.794Z,54.33
2019-02-26T11:15:17.445Z,52.10
2019-02-26T11:17:51.305Z,52.00
2019-02-26T11:20:22.354Z,48.37
2019-02-26T11:22:54.352Z,52.60
2019-02-26T11:25:27.319Z,53.20
2019-02-26T11:28:00.596Z,50.83
2019-02-26T11:30:32.258Z,50.30
2019-02-26T11:33:06.110Z,46.50
2019-02-26T11:35:36.375Z,49.63
2019-02-26T11:38:09.316Z,49.17
2019-02-26T11:40:40.430Z,48.73
2019-02-26T11:43:14.422Z,47.07
2019-02-26T11:45:44.594Z,50.50
2019-02-26T11:48:17.546Z,53.93
2019-02-26T11:50:49.051Z,42.97
2019-02-26T11:53:20.262Z,45.93
2019-02-26T11:55:52.715Z,43.40
2019-02-26T11:58:25.363Z,42.27
2019-02-26T12:00:58.933Z,43.60
2019-02-26T12:03:33.152Z,43.90
2019-02-26T12:06:03.030Z,41.67
2019-02-26T12:08:34.218Z,34.43
2019-02-26T12:11:06.803Z,39.17
2019-02-26T12:13:39.508Z,33.63
2019-02-26T12:16:11.473Z,37.03
2019-02-26T12:18:44.356Z,36.10
2019-02-26T12:21:15.454Z,35.97
2019-02-26T12:23:46.847Z,37.60
2019-02-26T12:26:19.162Z,36.40
2019-02-26T12:28:52.360Z,38.30
2019-02-26T12:31:25.306Z,46.07
2019-02-26T12:33:56.471Z,45.67
2019-02-26T12:36:29.935Z,46.73
2019-02-26T12:39:02.497Z,50.67
2019-02-26T12:41:36.581Z,49.83
2019-02-26T12:44:10.863Z,43.93
2019-02-26T12:46:40.624Z,49.90
2019-02-26T12:49:12.692Z,48.03
2019-02-26T12:51:44.727Z,48.30
2019-02-26T12:54:15.916Z,51.70
2019-02-26T12:56:49.042Z,48.13
2019-02-26T12:59:20.142Z,48.07
2019-02-26T13:01:51.965Z,53.90
2019-02-26T13:04:25.066Z,55.47
2019-02-26T13:06:56.212Z,52.87
2019-02-26T13:09:27.421Z,63.73
2019-02-26T13:12:02.582Z,59.50
2019-02-26T13:14:31.708Z,54.53
2019-02-26T13:17:02.983Z,62.47
2019-02-26T13:19:36.933Z,67.00
2019-02-26T13:22:09.705Z,51.47
2019-02-26T13:24:40.023Z,53.83
2019-02-26T13:27:11.271Z,54.80
2019-02-26T13:29:47.617Z,54.90
2019-02-26T13:32:17.567Z,53.03
2019-02-26T13:34:48.268Z,54.40
2019-02-26T13:37:34.670Z,48.57
2019-02-26T13:40:04.438Z,56.67
2019-02-26T13:42:35.873Z,50.00
2019-02-26T13:45:08.760Z,44.43
2019-02-26T13:47:40.013Z,48.67
2019-02-26T13:50:13.600Z,46.27
2019-02-26T13:52:45.900Z,46.97
2019-02-26T13:55:17.157Z,41.07
2019-02-26T13:57:48.518Z,39.37
2019-02-26T14:00:26.298Z,45.80
2019-02-26T14:02:53.026Z,38.30
2019-02-26T14:05:24.361Z,29.50
2019-02-26T14:07:55.612Z,35.57
2019-02-26T14:10:29.495Z,35.13
2019-02-26T14:13:00.772Z,34.17
2019-02-26T14:15:32.163Z,36.43
2019-02-26T14:18:03.519Z,37.03
2019-02-26T14:20:34.870Z,37.33
2019-02-26T14:23:06.080Z,37.97
2019-02-26T14:25:37.307Z,36.17
2019-02-26T14:28:08.583Z,37.47
2019-02-26T14:30:39.816Z,37.53
2019-02-26T14:33:11.013Z,40.17
2019-02-26T14:35:43.376Z,36.30
2019-02-26T14:38:14.703Z,36.43
2019-02-26T14:40:46.177Z,36.30
2019-02-26T14:43:18.581Z,43.00
2019-02-26T14:45:49.877Z,43.70
2019-02-26T14:48:21.199Z,38.23
2019-02-26T14:50:52.597Z,38.67
2019-02-26T14:53:23.980Z,42.63
2019-02-26T14:56:05.182Z,40.50
2019-02-26T14:58:36.734Z,41.50
2019-02-26T15:01:08.019Z,42.13
2019-02-26T15:03:39.377Z,45.83
2019-02-26T15:06:10.622Z,41.17
2019-02-26T15:08:42.165Z,38.57
2019-02-26T15:11:13.441Z,41.30
2019-02-26T15:13:44.743Z,39.80
2019-02-26T15:16:16.033Z,45.63
2019-02-26T15:18:47.255Z,44.30
2019-02-26T15:21:18.606Z,45.47
2019-02-26T15:23:50.410Z,42.87
2019-02-26T15:26:22.235Z,42.37
2019-02-26T15:28:53.700Z,42.97
2019-02-26T15:31:25.042Z,46.47
2019-02-26T15:33:56.855Z,38.00
2019-02-26T15:36:28.039Z,42.30
2019-02-26T15:38:59.307Z,42.20
2019-02-26T15:41:30.537Z,47.30
2019-02-26T15:44:01.860Z,46.03
2019-02-26T15:46:33.083Z,40.20
2019-02-26T15:49:07.312Z,45.57
2019-02-26T15:51:37.298Z,46.77
2019-02-26T15:54:08.609Z,44.43
2019-02-26T15:56:40.050Z,48.10
2019-02-26T15:59:11.271Z,47.00
2019-02-26T16:01:42.492Z,50.20
2019-02-26T16:04:13.715Z,46.67
2019-02-26T16:06:45.026Z,43.57
2019-02-26T16:09:16.634Z,51.77
2019-02-26T16:11:47.882Z,50.97
2019-02-26T16:14:19.174Z,56.00
2019-02-26T16:16:50.431Z,60.87
2019-02-26T16:19:22.110Z,56.13
2019-02-26T16:21:53.434Z,53.83
2019-02-26T16:24:24.708Z,53.13
2019-02-26T16:26:55.914Z,64.47
2019-02-26T16:29:27.097Z,65.23
2019-02-26T16:31:58.379Z,68.60
2019-02-26T16:34:29.563Z,60.13
2019-02-26T16:37:03.307Z,64.07
2019-02-26T16:39:33.595Z,78.87
2019-02-26T16:42:04.800Z,71.40
2019-02-26T16:44:36.015Z,76.33
2019-02-26T16:47:07.603Z,69.57
2019-02-26T16:49:38.782Z,70.10
2019-02-26T16:52:10.630Z,70.93
2019-02-26T16:54:41.813Z,72.17
2019-02-26T16:57:13.028Z,63.67
2019-02-26T16:59:44.225Z,69.93
2019-02-26T17:02:15.753Z,67.00
2019-02-26T17:04:47.002Z,68.17
2019-02-26T17:07:18.234Z,70.93
2019-02-26T17:09:49.439Z,63.63
2019-02-26T17:12:20.642Z,73.03
2019-02-26T17:14:52.078Z,74.43
2019-02-26T17:17:23.237Z,67.63
2019-02-26T17:19:54.477Z,79.87
2019-02-26T17:22:25.756Z,66.77
2019-02-26T17:24:57.285Z,70.80
2019-02-26T17:27:28.878Z,81.50
2019-02-26T17:30:00.831Z,89.37
2019-02-26T17:32:35.695Z,90.87
2019-02-26T17:35:07.521Z,81.80
2019-02-26T17:37:41.615Z,84.50
2019-02-26T17:40:13.627Z,83.33
2019-02-26T17:42:44.883Z,78.63
2019-02-26T17:45:18.286Z,73.70
2019-02-26T17:47:49.571Z,70.60
2019-02-26T17:50:23.558Z,71.77
2019-02-26T17:52:54.754Z,75.43
2019-02-26T17:55:26.403Z,69.07
2019-02-26T17:57:57.603Z,78.20
2019-02-26T18:00:29.610Z,73.07
2019-02-26T18:03:00.840Z,79.53
2019-02-26T18:05:32.448Z,77.90
2019-02-26T18:08:04.737Z,77.43
2019-02-26T18:10:42.289Z,88.93
2019-02-26T18:13:15.078Z,104.83
2019-02-26T18:15:46.626Z,94.07
2019-02-26T18:18:18.058Z,107.00
2019-02-26T18:20:50.091Z,100.50
2019-02-26T18:23:21.403Z,88.97
2019-02-26T18:25:53.067Z,102.80
2019-02-26T18:28:24.354Z,95.03
2019-02-26T18:30:55.742Z,105.97
2019-02-26T18:33:26.983Z,105.10
2019-02-26T18:35:59.352Z,101.77
2019-02-26T18:38:31.643Z,99.53
2019-02-26T18:41:03.010Z,101.77
2019-02-26T18:43:34.691Z,105.13
2019-02-26T18:46:06.110Z,108.90
2019-02-26T18:48:37.329Z,102.00
2019-02-26T18:51:09.120Z,98.77
2019-02-26T18:53:40.648Z,96.10
2019-02-26T18:56:12.049Z,101.13
2019-02-26T18:58:43.415Z,96.20
2019-02-26T19:01:14.845Z,99.87
2019-02-26T19:03:46.275Z,100.27
2019-02-26T19:06:18.026Z,87.80
2019-02-26T19:08:49.326Z,96.03
2019-02-26T19:11:20.836Z,89.20
2019-02-26T19:13:53.453Z,84.73
2019-02-26T19:16:25.882Z,85.47
2019-02-26T19:18:57.206Z,86.57
2019-02-26T19:21:31.540Z,80.60
2019-02-26T19:24:04.568Z,83.70
2019-02-26T19:26:35.751Z,84.10
2019-02-26T19:29:07.017Z,97.37
2019-02-26T19:31:42.403Z,85.60
2019-02-26T19:34:12.298Z,85.20
2019-02-26T19:36:45.686Z,85.83
2019-02-26T19:39:16.888Z,88.17
2019-02-26T19:41:48.135Z,90.63
2019-02-26T19:44:19.410Z,91.90
2019-02-26T19:46:51.262Z,96.37
2019-02-26T19:49:22.640Z,93.47
2019-02-26T19:51:53.891Z,92.67
2019-02-26T19:54:25.177Z,87.73
2019-02-26T19:56:57.055Z,91.80
2019-02-26T19:59:29.123Z,84.37
2019-02-26T20:02:00.350Z,87.93
2019-02-26T20:04:31.657Z,91.60
2019-02-26T20:07:02.818Z,83.60
2019-02-26T20:09:34.201Z,87.00
2019-02-26T20:12:05.632Z,91.13
2019-02-26T20:14:36.853Z,95.00
2019-02-26T20:17:14.717Z,89.13
2019-02-26T20:19:41.167Z,128.87
2019-02-26T20:22:12.682Z,88.00
2019-02-26T20:24:44.176Z,90.53
2019-02-26T20:27:15.656Z,86.77
2019-02-26T20:29:46.957Z,91.87
2019-02-26T20:32:18.348Z,94.83
2019-02-26T20:34:49.784Z,89.37
2019-02-26T20:37:21.979Z,92.27
2019-02-26T20:39:54.454Z,86.03
2019-02-26T20:42:26.827Z,97.80
2019-02-26T20:44:59.255Z,103.30
2019-02-26T20:47:31.638Z,94.87
2019-02-26T20:50:04.293Z,101.43
2019-02-26T20:52:35.659Z,103.67
2019-02-26T20:55:08.430Z,100.63
2019-02-26T20:57:39.698Z,101.33
2019-02-26T21:00:16.406Z,102.07
2019-02-26T21:02:47.941Z,103.10
2019-02-26T21:05:19.437Z,92.23
2019-02-26T21:07:51.754Z,108.47
2019-02-26T21:10:23.143Z,96.33
2019-02-26T21:12:55.422Z,97.90
2019-02-26T21:15:26.686Z,89.23
2019-02-26T21:17:58.608Z,86.97
2019-02-26T21:20:30.047Z,92.43
2019-02-26T21:23:01.333Z,85.43
2019-02-26T21:25:32.590Z,85.30
2019-02-26T21:28:03.819Z,80.90
2019-02-26T21:30:37.265Z,80.57
2019-02-26T21:33:08.505Z,76.47
2019-02-26T21:35:39.737Z,70.00
2019-02-26T21:38:13.055Z,70.63
2019-02-26T21:40:44.062Z,75.17
2019-02-26T21:43:15.354Z,74.90
2019-02-26T21:45:49.114Z,75.20
2019-02-26T21:48:19.536Z,79.40
2019-02-26T21:50:54.529Z,81.73
2019-02-26T21:53:23.763Z,75.77
2019-02-26T21:55:55.629Z,80.63
2019-02-26T21:58:27.424Z,83.30
2019-02-26T22:00:58.765Z,93.60
2019-02-26T22:03:30.010Z,93.80
2019-02-26T22:06:05.281Z,96.17
2019-02-26T22:08:34.223Z,109.43
2019-02-26T22:11:05.424Z,113.77
2019-02-26T22:13:36.740Z,113.90
2019-02-26T22:16:07.952Z,122.17
2019-02-26T22:18:39.177Z,128.33
2019-02-26T22:21:10.422Z,121.67
2019-02-26T22:23:41.633Z,126.17
2019-02-26T22:26:12.812Z,134.07
2019-02-26T22:28:44.032Z,140.97
2019-02-26T22:31:15.249Z,139.17
2019-02-26T22:33:46.506Z,147.77
2019-02-26T22:36:18.769Z,137.77
2019-02-26T22:38:49.995Z,159.87
2019-02-26T22:41:21.175Z,125.30
2019-02-26T22:43:52.371Z,121.53
2019-02-26T22:46:23.637Z,136.53
2019-02-26T22:48:54.857Z,129.03
2019-02-26T22:51:26.070Z,128.13
2019-02-26T22:53:57.281Z,127.97
2019-02-26T22:56:28.478Z,115.07
2019-02-26T22:58:59.793Z,113.80
2019-02-26T23:01:37.233Z,117.77
2019-02-26T23:04:09.043Z,115.87
2019-02-26T23:06:40.290Z,130.50
2019-02-26T23:09:17.631Z,127.53
2019-02-26T23:11:48.209Z,123.87
2019-02-26T23:14:19.583Z,132.33
2019-02-26T23:16:52.169Z,122.07
2019-02-26T23:19:24.723Z,119.83
2019-02-26T23:21:56.162Z,94.40
2019-02-26T23:24:29.336Z,101.77
2019-02-26T23:27:01.230Z,86.77
2019-02-26T23:29:32.570Z,86.67
2019-02-26T23:32:06.103Z,85.40
2019-02-26T23:34:37.524Z,128.17
2019-02-26T23:37:09.238Z,89.40
2019-02-26T23:39:40.508Z,97.00
2019-02-26T23:42:11.910Z,115.03
2019-02-26T23:44:43.139Z,132.30
2019-02-26T23:47:14.328Z,150.43
2019-02-26T23:49:47.665Z,152.80
2019-02-26T23:52:18.337Z,181.77
2019-02-26T23:54:49.501Z,180.60
2019-02-26T23:57:22.720Z,199.80
2019-02-26T23:59:54.628Z,176.03
